Good Thunder, Minnesota
Current Conditions -  °F | °C
As of 3:35 PM on Saturday 22 Nov 2014 (Local Time) from KMKT Reporting Station
Overcast Overcast  
Wind Chill: 27°   Ceiling: 300
Heat Index: 36°   Visibility: 1.7mi
Dew Point: 32°   Wind: 13mph
Humidity: 87%   Direction: 180°S
Pressure: 29.65"   Gusts: 18mph
Location:  44°N, 94.07°W
Report Text: KMKT 222135Z AUTO 18011G16KT 1 3/4SM OVC003 02/00 A2965 RMK AO1
Loading
Personal Weather Stations






























Interactive Weather Map New forecast layout! Learn more

10-Day Weather Forecast

Advertisements
Track Severe Weather on mobile